WAT8999 RJGG-RCTP
Flight info
| Callsign | WAT8999 |
|---|---|
| Flight time | 2h 52m |
| Altitude | 32000 |
| Route | KEC Y24 KOSHI Y50 IGMON A1 DRAKE DRAKE1A |
| Aircraft | A320/M-SDE3FGHIRWY/LB1 |
Departure
| Time | 2026-04-30 11:38 |
|---|---|
| Airport | Chubu Centrair International Airport (RJGG) |
Arrival
| Time | 2026-04-30 14:30 |
|---|---|
| Airport | Taiwan Taoyuan International Airport (RCTP) |
| Time | Latitude | Longitude | Altitude | Speed | Heading |
|---|---|---|---|---|---|
| 2026-04-30 11:16 | 34.86499 | 136.80945 | 9 ft | 0 kts | 79° |
| 2026-04-30 11:28 | 34.86498 | 136.80937 | 8 ft | 2 kts | 79° |
| 2026-04-30 11:28 | 34.86495 | 136.80919 | 8 ft | 2 kts | 79° |
| 2026-04-30 11:28 | 34.86493 | 136.80905 | 8 ft | 0 kts | 79° |
| 2026-04-30 11:29 | 34.86489 | 136.80890 | 8 ft | 2 kts | 64° |
| 2026-04-30 11:29 | 34.86482 | 136.80875 | 8 ft | 2 kts | 50° |
| 2026-04-30 11:29 | 34.86457 | 136.80855 | 9 ft | 2 kts | 18° |
| 2026-04-30 11:30 | 34.86432 | 136.80852 | 8 ft | 0 kts | 351° |
| 2026-04-30 11:30 | 34.86425 | 136.80853 | 8 ft | 0 kts | 348° |
| 2026-04-30 11:32 | 34.86427 | 136.80853 | 8 ft | 0 kts | 348° |
| 2026-04-30 11:32 | 34.86437 | 136.80850 | 8 ft | 2 kts | 348° |
| 2026-04-30 11:33 | 34.86489 | 136.80838 | 8 ft | 5 kts | 349° |
| 2026-04-30 11:33 | 34.86531 | 136.80829 | 8 ft | 6 kts | 349° |
| 2026-04-30 11:33 | 34.86582 | 136.80817 | 8 ft | 8 kts | 348° |
| 2026-04-30 11:33 | 34.86644 | 136.80801 | 8 ft | 9 kts | 349° |
| 2026-04-30 11:34 | 34.86716 | 136.80785 | 8 ft | 11 kts | 349° |
| 2026-04-30 11:34 | 34.86794 | 136.80765 | 8 ft | 12 kts | 348° |
| 2026-04-30 11:34 | 34.86881 | 136.80745 | 8 ft | 13 kts | 349° |
| 2026-04-30 11:34 | 34.86974 | 136.80722 | 8 ft | 13 kts | 348° |
| 2026-04-30 11:35 | 34.87071 | 136.80699 | 8 ft | 14 kts | 349° |
| 2026-04-30 11:35 | 34.87174 | 136.80675 | 8 ft | 15 kts | 348° |
| 2026-04-30 11:35 | 34.87278 | 136.80649 | 8 ft | 15 kts | 349° |
| 2026-04-30 11:35 | 34.87382 | 136.80624 | 8 ft | 12 kts | 349° |
| 2026-04-30 11:36 | 34.87439 | 136.80574 | 8 ft | 10 kts | 280° |
| 2026-04-30 11:36 | 34.87427 | 136.80481 | 8 ft | 11 kts | 259° |
| 2026-04-30 11:36 | 34.87410 | 136.80379 | 8 ft | 13 kts | 259° |
| 2026-04-30 11:36 | 34.87392 | 136.80266 | 8 ft | 12 kts | 259° |
| 2026-04-30 11:37 | 34.87353 | 136.80186 | 8 ft | 11 kts | 203° |
| 2026-04-30 11:37 | 34.87267 | 136.80197 | 8 ft | 16 kts | 168° |
| 2026-04-30 11:37 | 34.86948 | 136.80273 | 9 ft | 77 kts | 168° |
| 2026-04-30 11:37 | 34.86234 | 136.80444 | 9 ft | 130 kts | 169° |
| 2026-04-30 11:38 | 34.85189 | 136.80698 | 113 ft | 162 kts | 167° |
| 2026-04-30 11:38 | 34.84115 | 136.80945 | 592 ft | 160 kts | 170° |
| 2026-04-30 11:38 | 34.82995 | 136.80893 | 1054 ft | 163 kts | 192° |
| 2026-04-30 11:38 | 34.81900 | 136.80499 | 1523 ft | 164 kts | 198° |
| 2026-04-30 11:39 | 34.80821 | 136.80058 | 1856 ft | 170 kts | 198° |
| 2026-04-30 11:39 | 34.79654 | 136.79582 | 2094 ft | 183 kts | 197° |
| 2026-04-30 11:39 | 34.78402 | 136.79083 | 2368 ft | 195 kts | 196° |
| 2026-04-30 11:39 | 34.77049 | 136.78555 | 2655 ft | 209 kts | 195° |
| 2026-04-30 11:40 | 34.75614 | 136.78006 | 2913 ft | 227 kts | 194° |
| 2026-04-30 11:40 | 34.74045 | 136.77411 | 3187 ft | 246 kts | 194° |
| 2026-04-30 11:40 | 34.72348 | 136.76772 | 3565 ft | 262 kts | 194° |
| 2026-04-30 11:40 | 34.70600 | 136.76106 | 4209 ft | 267 kts | 194° |
| 2026-04-30 11:41 | 34.68827 | 136.75429 | 4978 ft | 268 kts | 193° |
| 2026-04-30 11:41 | 34.67047 | 136.74754 | 5708 ft | 270 kts | 194° |
| 2026-04-30 11:41 | 34.65240 | 136.74069 | 6429 ft | 272 kts | 194° |
| 2026-04-30 11:41 | 34.63453 | 136.73390 | 7125 ft | 274 kts | 194° |
| 2026-04-30 11:42 | 34.61641 | 136.72704 | 7802 ft | 275 kts | 194° |
| 2026-04-30 11:42 | 34.59789 | 136.72000 | 8478 ft | 277 kts | 194° |
| 2026-04-30 11:42 | 34.57968 | 136.71312 | 9103 ft | 279 kts | 194° |
| 2026-04-30 11:42 | 34.56096 | 136.70639 | 9709 ft | 281 kts | 193° |
| 2026-04-30 11:43 | 34.54206 | 136.70023 | 10278 ft | 283 kts | 193° |
| 2026-04-30 11:43 | 34.52275 | 136.69402 | 10591 ft | 296 kts | 193° |
| 2026-04-30 11:43 | 34.50232 | 136.68745 | 10855 ft | 311 kts | 194° |
| 2026-04-30 11:43 | 34.48081 | 136.68053 | 11114 ft | 325 kts | 194° |
| 2026-04-30 11:44 | 34.45837 | 136.67333 | 11367 ft | 339 kts | 195° |
| 2026-04-30 11:44 | 34.43521 | 136.66580 | 11699 ft | 349 kts | 196° |
| 2026-04-30 11:44 | 34.41186 | 136.65828 | 12212 ft | 351 kts | 197° |
| 2026-04-30 11:44 | 34.38813 | 136.65060 | 12729 ft | 353 kts | 197° |
| 2026-04-30 11:45 | 34.36450 | 136.64294 | 13207 ft | 356 kts | 198° |
| 2026-04-30 11:45 | 34.34045 | 136.63519 | 13680 ft | 358 kts | 198° |
| 2026-04-30 11:45 | 34.31619 | 136.62732 | 14146 ft | 361 kts | 198° |
| 2026-04-30 11:45 | 34.29182 | 136.61946 | 14603 ft | 362 kts | 199° |
| 2026-04-30 11:46 | 34.26771 | 136.61168 | 15034 ft | 364 kts | 199° |
| 2026-04-30 11:46 | 34.24299 | 136.60373 | 15457 ft | 366 kts | 199° |
| 2026-04-30 11:46 | 34.21814 | 136.59569 | 15863 ft | 368 kts | 200° |
| 2026-04-30 11:46 | 34.19449 | 136.58467 | 16241 ft | 366 kts | 210° |
| 2026-04-30 11:47 | 34.17264 | 136.56880 | 16626 ft | 365 kts | 219° |
| 2026-04-30 11:47 | 34.15329 | 136.54948 | 16980 ft | 364 kts | 224° |
| 2026-04-30 11:47 | 34.13448 | 136.52920 | 17324 ft | 366 kts | 225° |
| 2026-04-30 11:47 | 34.11544 | 136.50851 | 17659 ft | 369 kts | 225° |
| 2026-04-30 11:48 | 34.09639 | 136.48781 | 17875 ft | 375 kts | 225° |
| 2026-04-30 11:48 | 34.07689 | 136.46669 | 18174 ft | 377 kts | 225° |
| 2026-04-30 11:48 | 34.05726 | 136.44547 | 18509 ft | 379 kts | 225° |
| 2026-04-30 11:48 | 34.03762 | 136.42427 | 18830 ft | 380 kts | 225° |
| 2026-04-30 11:49 | 34.01781 | 136.40292 | 19140 ft | 382 kts | 225° |
| 2026-04-30 11:49 | 33.99820 | 136.38181 | 19456 ft | 383 kts | 225° |
| 2026-04-30 11:49 | 33.97823 | 136.36031 | 19767 ft | 384 kts | 225° |
| 2026-04-30 11:49 | 33.95815 | 136.33872 | 20077 ft | 386 kts | 224° |
| 2026-04-30 11:50 | 33.93821 | 136.31729 | 20376 ft | 387 kts | 224° |
| 2026-04-30 11:50 | 33.91804 | 136.29562 | 20642 ft | 388 kts | 224° |
| 2026-04-30 11:50 | 33.89787 | 136.27394 | 20913 ft | 389 kts | 224° |
| 2026-04-30 11:50 | 33.87757 | 136.25215 | 21190 ft | 389 kts | 224° |
| 2026-04-30 11:51 | 33.85735 | 136.23048 | 21460 ft | 390 kts | 224° |
| 2026-04-30 11:51 | 33.83733 | 136.20903 | 21733 ft | 391 kts | 224° |
| 2026-04-30 11:51 | 33.81694 | 136.18720 | 21997 ft | 392 kts | 224° |
| 2026-04-30 11:51 | 33.79653 | 136.16536 | 22252 ft | 393 kts | 224° |
| 2026-04-30 11:52 | 33.77605 | 136.14345 | 22503 ft | 394 kts | 224° |
| 2026-04-30 11:52 | 33.75568 | 136.12169 | 22744 ft | 395 kts | 224° |
| 2026-04-30 11:52 | 33.73508 | 136.09970 | 22982 ft | 396 kts | 224° |
| 2026-04-30 11:52 | 33.71468 | 136.07794 | 23214 ft | 396 kts | 224° |
| 2026-04-30 11:53 | 33.69392 | 136.05582 | 23447 ft | 397 kts | 224° |
| 2026-04-30 11:53 | 33.67326 | 136.03381 | 23680 ft | 398 kts | 224° |
| 2026-04-30 11:53 | 33.65271 | 136.01193 | 23926 ft | 398 kts | 224° |
| 2026-04-30 11:53 | 33.63186 | 135.98975 | 24173 ft | 399 kts | 224° |
| 2026-04-30 11:54 | 33.61110 | 135.96768 | 24414 ft | 399 kts | 224° |
| 2026-04-30 11:54 | 33.59046 | 135.94575 | 24654 ft | 400 kts | 224° |
| 2026-04-30 11:54 | 33.56955 | 135.92355 | 24898 ft | 399 kts | 224° |
| 2026-04-30 11:54 | 33.54889 | 135.90163 | 25125 ft | 400 kts | 224° |
| 2026-04-30 11:55 | 33.52792 | 135.87941 | 25357 ft | 400 kts | 224° |
| 2026-04-30 11:55 | 33.50723 | 135.85750 | 25589 ft | 401 kts | 224° |
| 2026-04-30 11:55 | 33.48619 | 135.83524 | 25822 ft | 401 kts | 224° |
| 2026-04-30 11:55 | 33.46694 | 135.81145 | 26037 ft | 399 kts | 232° |
| 2026-04-30 11:56 | 33.45123 | 135.78387 | 26268 ft | 399 kts | 240° |
| 2026-04-30 11:56 | 33.43957 | 135.75420 | 26483 ft | 400 kts | 248° |
| 2026-04-30 11:56 | 33.43120 | 135.72227 | 26693 ft | 402 kts | 252° |
| 2026-04-30 11:56 | 33.42352 | 135.69041 | 26891 ft | 403 kts | 252° |
| 2026-04-30 11:57 | 33.41583 | 135.65813 | 27061 ft | 404 kts | 252° |
| 2026-04-30 11:57 | 33.40814 | 135.62569 | 27234 ft | 406 kts | 252° |
| 2026-04-30 11:57 | 33.40044 | 135.59315 | 27422 ft | 406 kts | 252° |
| 2026-04-30 11:57 | 33.39285 | 135.56105 | 27621 ft | 406 kts | 252° |
| 2026-04-30 11:58 | 33.38516 | 135.52853 | 27861 ft | 404 kts | 252° |
| 2026-04-30 11:58 | 33.37749 | 135.49615 | 28106 ft | 403 kts | 252° |
| 2026-04-30 11:58 | 33.36991 | 135.46420 | 28341 ft | 402 kts | 252° |
| 2026-04-30 11:58 | 33.36231 | 135.43240 | 28574 ft | 401 kts | 251° |
| 2026-04-30 11:59 | 33.35416 | 135.40044 | 28812 ft | 400 kts | 251° |
| 2026-04-30 11:59 | 33.34591 | 135.36876 | 29067 ft | 398 kts | 251° |
| 2026-04-30 11:59 | 33.33775 | 135.33752 | 29335 ft | 397 kts | 250° |
| 2026-04-30 11:59 | 33.32946 | 135.30579 | 29629 ft | 396 kts | 250° |
| 2026-04-30 12:00 | 33.32138 | 135.27478 | 29915 ft | 394 kts | 250° |
| 2026-04-30 12:00 | 33.31324 | 135.24353 | 30197 ft | 393 kts | 250° |
| 2026-04-30 12:00 | 33.30508 | 135.21225 | 30435 ft | 393 kts | 250° |
| 2026-04-30 12:00 | 33.29701 | 135.18133 | 30640 ft | 394 kts | 250° |
| 2026-04-30 12:01 | 33.28878 | 135.14986 | 30841 ft | 395 kts | 250° |
| 2026-04-30 12:01 | 33.28067 | 135.11883 | 31024 ft | 396 kts | 250° |
| 2026-04-30 12:01 | 33.27249 | 135.08763 | 31205 ft | 397 kts | 250° |
| 2026-04-30 12:01 | 33.26424 | 135.05615 | 31386 ft | 398 kts | 250° |
| 2026-04-30 12:02 | 33.25592 | 135.02444 | 31558 ft | 398 kts | 250° |
| 2026-04-30 12:02 | 33.24766 | 134.99291 | 31713 ft | 399 kts | 251° |
| 2026-04-30 12:02 | 33.23979 | 134.96100 | 31876 ft | 400 kts | 251° |
| 2026-04-30 12:02 | 33.23219 | 134.92932 | 31948 ft | 400 kts | 251° |
| 2026-04-30 12:03 | 33.20929 | 134.83411 | 31968 ft | 399 kts | 251° |
| 2026-04-30 12:04 | 33.19392 | 134.77066 | 31966 ft | 398 kts | 251° |
| 2026-04-30 12:04 | 33.17849 | 134.70737 | 31931 ft | 398 kts | 251° |
| 2026-04-30 12:05 | 33.16296 | 134.64378 | 31923 ft | 399 kts | 251° |
| 2026-04-30 12:05 | 33.14752 | 134.58061 | 31929 ft | 399 kts | 251° |
| 2026-04-30 12:06 | 33.13202 | 134.51738 | 31932 ft | 398 kts | 251° |
| 2026-04-30 12:06 | 33.11652 | 134.45435 | 31931 ft | 398 kts | 251° |
| 2026-04-30 12:07 | 33.10095 | 134.39122 | 31922 ft | 398 kts | 251° |
| 2026-04-30 12:07 | 33.08529 | 134.32793 | 31917 ft | 397 kts | 251° |
| 2026-04-30 12:08 | 33.06966 | 134.26474 | 31914 ft | 397 kts | 251° |
| 2026-04-30 12:08 | 33.05419 | 134.20177 | 31914 ft | 398 kts | 251° |
| 2026-04-30 12:09 | 33.03900 | 134.13878 | 31913 ft | 398 kts | 251° |
| 2026-04-30 12:09 | 33.02365 | 134.07541 | 31912 ft | 398 kts | 251° |
| 2026-04-30 12:10 | 33.00833 | 134.01237 | 31911 ft | 398 kts | 251° |
| 2026-04-30 12:10 | 32.99289 | 133.94904 | 31909 ft | 398 kts | 251° |
| 2026-04-30 12:11 | 32.97748 | 133.88600 | 31907 ft | 399 kts | 251° |
| 2026-04-30 12:11 | 32.96201 | 133.82289 | 31911 ft | 398 kts | 251° |
| 2026-04-30 12:12 | 32.94656 | 133.75996 | 31909 ft | 397 kts | 251° |
| 2026-04-30 12:12 | 32.93097 | 133.69673 | 31899 ft | 397 kts | 251° |
| 2026-04-30 12:13 | 32.91546 | 133.63397 | 31896 ft | 397 kts | 251° |
| 2026-04-30 12:13 | 32.89989 | 133.57109 | 31895 ft | 397 kts | 251° |
| 2026-04-30 12:14 | 32.88434 | 133.50822 | 31893 ft | 397 kts | 251° |
| 2026-04-30 12:14 | 32.86878 | 133.44556 | 31892 ft | 397 kts | 251° |
| 2026-04-30 12:15 | 32.85308 | 133.38254 | 31891 ft | 397 kts | 251° |
| 2026-04-30 12:15 | 32.83741 | 133.31982 | 31891 ft | 397 kts | 251° |
| 2026-04-30 12:16 | 32.82163 | 133.25681 | 31889 ft | 397 kts | 251° |
| 2026-04-30 12:16 | 32.80593 | 133.19426 | 31888 ft | 397 kts | 251° |
| 2026-04-30 12:17 | 32.78223 | 133.10017 | 31901 ft | 396 kts | 250° |
| 2026-04-30 12:17 | 32.76598 | 133.03862 | 31909 ft | 392 kts | 248° |
| 2026-04-30 12:18 | 32.74559 | 132.97902 | 31898 ft | 388 kts | 244° |
| 2026-04-30 12:18 | 32.72096 | 132.92213 | 31883 ft | 387 kts | 240° |
| 2026-04-30 12:19 | 32.69506 | 132.86616 | 31875 ft | 386 kts | 240° |
| 2026-04-30 12:19 | 32.66916 | 132.81038 | 31869 ft | 386 kts | 240° |
| 2026-04-30 12:20 | 32.64326 | 132.75487 | 31866 ft | 386 kts | 240° |
| 2026-04-30 12:20 | 32.61723 | 132.69917 | 31864 ft | 387 kts | 240° |
| 2026-04-30 12:21 | 32.59116 | 132.64357 | 31861 ft | 386 kts | 240° |
| 2026-04-30 12:21 | 32.56513 | 132.58812 | 31857 ft | 386 kts | 240° |
| 2026-04-30 12:22 | 32.53896 | 132.53247 | 31851 ft | 386 kts | 240° |
| 2026-04-30 12:22 | 32.51301 | 132.47731 | 31848 ft | 386 kts | 240° |
| 2026-04-30 12:23 | 32.48679 | 132.42175 | 31846 ft | 386 kts | 240° |
| 2026-04-30 12:23 | 32.46070 | 132.36650 | 31845 ft | 385 kts | 240° |
| 2026-04-30 12:24 | 32.43458 | 132.31131 | 31845 ft | 385 kts | 240° |
| 2026-04-30 12:24 | 32.40837 | 132.25595 | 31843 ft | 385 kts | 240° |
| 2026-04-30 12:25 | 32.38236 | 132.20113 | 31842 ft | 385 kts | 240° |
| 2026-04-30 12:25 | 32.35618 | 132.14600 | 31840 ft | 385 kts | 240° |
| 2026-04-30 12:26 | 32.32999 | 132.09094 | 31839 ft | 385 kts | 240° |
| 2026-04-30 12:26 | 32.30370 | 132.03574 | 31837 ft | 385 kts | 240° |
| 2026-04-30 12:27 | 32.27748 | 131.98079 | 31836 ft | 385 kts | 240° |
| 2026-04-30 12:27 | 32.25132 | 131.92604 | 31834 ft | 385 kts | 240° |
| 2026-04-30 12:28 | 32.22491 | 131.87085 | 31832 ft | 385 kts | 240° |
| 2026-04-30 12:28 | 32.19875 | 131.81624 | 31827 ft | 384 kts | 240° |
| 2026-04-30 12:29 | 32.17251 | 131.76158 | 31822 ft | 384 kts | 240° |
| 2026-04-30 12:29 | 32.14608 | 131.70660 | 31821 ft | 384 kts | 240° |
| 2026-04-30 12:30 | 32.11984 | 131.65208 | 31821 ft | 384 kts | 239° |
| 2026-04-30 12:30 | 32.09350 | 131.59741 | 31822 ft | 383 kts | 239° |
| 2026-04-30 12:31 | 32.06723 | 131.54298 | 31823 ft | 383 kts | 239° |
| 2026-04-30 12:31 | 32.04096 | 131.48866 | 31821 ft | 383 kts | 239° |
| 2026-04-30 12:32 | 32.01444 | 131.43388 | 31819 ft | 383 kts | 239° |
| 2026-04-30 12:32 | 31.98819 | 131.37976 | 31818 ft | 383 kts | 239° |
| 2026-04-30 12:33 | 31.96160 | 131.32501 | 31816 ft | 382 kts | 239° |
| 2026-04-30 12:33 | 31.93505 | 131.27042 | 31815 ft | 384 kts | 239° |
| 2026-04-30 12:34 | 31.90854 | 131.21597 | 31822 ft | 385 kts | 239° |
| 2026-04-30 12:34 | 31.88199 | 131.16151 | 31831 ft | 385 kts | 239° |
| 2026-04-30 12:35 | 31.85531 | 131.10689 | 31834 ft | 384 kts | 239° |
| 2026-04-30 12:35 | 31.82873 | 131.05257 | 31837 ft | 384 kts | 239° |
| 2026-04-30 12:36 | 31.80213 | 130.99828 | 31837 ft | 384 kts | 239° |
| 2026-04-30 12:36 | 31.77557 | 130.94411 | 31834 ft | 384 kts | 239° |
| 2026-04-30 12:37 | 31.74886 | 130.88971 | 31830 ft | 383 kts | 239° |
| 2026-04-30 12:37 | 31.72227 | 130.83566 | 31830 ft | 383 kts | 239° |
| 2026-04-30 12:38 | 31.69571 | 130.78175 | 31833 ft | 383 kts | 239° |
| 2026-04-30 12:38 | 31.66905 | 130.72772 | 31835 ft | 382 kts | 239° |
| 2026-04-30 12:39 | 31.64245 | 130.67387 | 31838 ft | 382 kts | 239° |
| 2026-04-30 12:39 | 31.61587 | 130.62016 | 31840 ft | 381 kts | 239° |
| 2026-04-30 12:40 | 31.58917 | 130.56627 | 31841 ft | 381 kts | 239° |
| 2026-04-30 12:40 | 31.56261 | 130.51274 | 31841 ft | 380 kts | 239° |
| 2026-04-30 12:41 | 31.53604 | 130.45927 | 31840 ft | 380 kts | 239° |
| 2026-04-30 12:41 | 31.50952 | 130.40596 | 31839 ft | 379 kts | 239° |
| 2026-04-30 12:42 | 31.48305 | 130.35284 | 31840 ft | 379 kts | 238° |
| 2026-04-30 12:42 | 31.45645 | 130.29958 | 31841 ft | 378 kts | 238° |
| 2026-04-30 12:43 | 31.42991 | 130.24643 | 31842 ft | 378 kts | 238° |
| 2026-04-30 12:43 | 31.40336 | 130.19336 | 31844 ft | 378 kts | 238° |
| 2026-04-30 12:44 | 31.37689 | 130.14052 | 31848 ft | 378 kts | 238° |
| 2026-04-30 12:44 | 31.35029 | 130.08752 | 31849 ft | 379 kts | 238° |
| 2026-04-30 12:45 | 31.32370 | 130.03464 | 31850 ft | 379 kts | 238° |
| 2026-04-30 12:45 | 31.29653 | 129.98178 | 31850 ft | 379 kts | 236° |
| 2026-04-30 12:46 | 31.26598 | 129.93155 | 31849 ft | 378 kts | 232° |
| 2026-04-30 12:46 | 31.23377 | 129.88312 | 31848 ft | 377 kts | 232° |
| 2026-04-30 12:47 | 31.20172 | 129.83491 | 31850 ft | 376 kts | 232° |
| 2026-04-30 12:47 | 31.16966 | 129.78690 | 31853 ft | 376 kts | 232° |
| 2026-04-30 12:48 | 31.13748 | 129.73880 | 31855 ft | 377 kts | 232° |
| 2026-04-30 12:48 | 31.10532 | 129.69083 | 31856 ft | 377 kts | 232° |
| 2026-04-30 12:49 | 31.07304 | 129.64275 | 31856 ft | 378 kts | 232° |
| 2026-04-30 12:49 | 31.04068 | 129.59462 | 31856 ft | 378 kts | 232° |
| 2026-04-30 12:50 | 31.00804 | 129.54614 | 31855 ft | 378 kts | 232° |
| 2026-04-30 12:50 | 30.97572 | 129.49817 | 31856 ft | 378 kts | 232° |
| 2026-04-30 12:51 | 30.94308 | 129.44980 | 31857 ft | 379 kts | 232° |
| 2026-04-30 12:51 | 30.91071 | 129.40189 | 31857 ft | 379 kts | 232° |
| 2026-04-30 12:52 | 30.87789 | 129.35338 | 31859 ft | 379 kts | 232° |
| 2026-04-30 12:52 | 30.84526 | 129.30521 | 31859 ft | 379 kts | 232° |
| 2026-04-30 12:53 | 30.81260 | 129.25703 | 31859 ft | 379 kts | 232° |
| 2026-04-30 12:53 | 30.78008 | 129.20915 | 31859 ft | 379 kts | 232° |
| 2026-04-30 12:54 | 30.74773 | 129.16037 | 31859 ft | 379 kts | 233° |
| 2026-04-30 12:54 | 30.71601 | 129.11192 | 31860 ft | 379 kts | 233° |
| 2026-04-30 12:55 | 30.68403 | 129.06319 | 31860 ft | 379 kts | 233° |
| 2026-04-30 12:55 | 30.65206 | 129.01459 | 31861 ft | 379 kts | 233° |
| 2026-04-30 12:56 | 30.61995 | 128.96585 | 31861 ft | 379 kts | 233° |
| 2026-04-30 12:56 | 30.58787 | 128.91721 | 31862 ft | 379 kts | 233° |
| 2026-04-30 12:57 | 30.55590 | 128.86883 | 31862 ft | 379 kts | 233° |
| 2026-04-30 12:57 | 30.52379 | 128.82028 | 31863 ft | 379 kts | 233° |
| 2026-04-30 12:58 | 30.49178 | 128.77196 | 31867 ft | 379 kts | 233° |
| 2026-04-30 12:58 | 30.45977 | 128.72366 | 31882 ft | 379 kts | 233° |
| 2026-04-30 12:59 | 30.42769 | 128.67534 | 31901 ft | 379 kts | 233° |
| 2026-04-30 12:59 | 30.39565 | 128.62718 | 31913 ft | 378 kts | 233° |
| 2026-04-30 13:00 | 30.36338 | 128.57873 | 31923 ft | 378 kts | 233° |
| 2026-04-30 13:00 | 30.33140 | 128.53078 | 31927 ft | 378 kts | 233° |
| 2026-04-30 13:01 | 30.29928 | 128.48262 | 31928 ft | 378 kts | 233° |
| 2026-04-30 13:01 | 30.26710 | 128.43443 | 31928 ft | 378 kts | 233° |
| 2026-04-30 13:02 | 30.23498 | 128.38640 | 31929 ft | 379 kts | 233° |
| 2026-04-30 13:02 | 30.20273 | 128.33823 | 31932 ft | 379 kts | 233° |
| 2026-04-30 13:03 | 30.17038 | 128.28998 | 31932 ft | 379 kts | 233° |
| 2026-04-30 13:03 | 30.13818 | 128.24197 | 31934 ft | 379 kts | 233° |
| 2026-04-30 13:04 | 30.10599 | 128.19405 | 31937 ft | 379 kts | 233° |
| 2026-04-30 13:04 | 30.07375 | 128.14612 | 31939 ft | 379 kts | 233° |
| 2026-04-30 13:05 | 30.04134 | 128.09799 | 31940 ft | 380 kts | 233° |
| 2026-04-30 13:06 | 29.99282 | 128.02605 | 31941 ft | 380 kts | 233° |
| 2026-04-30 13:06 | 29.96030 | 127.97791 | 31942 ft | 380 kts | 233° |
| 2026-04-30 13:07 | 29.92802 | 127.93018 | 31943 ft | 380 kts | 233° |
| 2026-04-30 13:07 | 29.89543 | 127.88203 | 31945 ft | 379 kts | 233° |
| 2026-04-30 13:08 | 29.86285 | 127.83452 | 31945 ft | 380 kts | 231° |
| 2026-04-30 13:08 | 29.82849 | 127.78827 | 31946 ft | 380 kts | 231° |
| 2026-04-30 13:09 | 29.79430 | 127.74222 | 31946 ft | 380 kts | 231° |
| 2026-04-30 13:09 | 29.75993 | 127.69604 | 31945 ft | 380 kts | 231° |
| 2026-04-30 13:10 | 29.72545 | 127.64977 | 31943 ft | 381 kts | 231° |
| 2026-04-30 13:10 | 29.69094 | 127.60355 | 31942 ft | 381 kts | 231° |
| 2026-04-30 13:11 | 29.65643 | 127.55740 | 31942 ft | 381 kts | 231° |
| 2026-04-30 13:11 | 29.62206 | 127.51148 | 31941 ft | 381 kts | 231° |
| 2026-04-30 13:12 | 29.58743 | 127.46500 | 31937 ft | 381 kts | 232° |
| 2026-04-30 13:12 | 29.55461 | 127.41750 | 31940 ft | 382 kts | 233° |
| 2026-04-30 13:13 | 29.50505 | 127.34591 | 31949 ft | 382 kts | 232° |
| 2026-04-30 13:14 | 29.45543 | 127.27426 | 31952 ft | 382 kts | 232° |
| 2026-04-30 13:14 | 29.40592 | 127.20283 | 31952 ft | 383 kts | 232° |
| 2026-04-30 13:15 | 29.35612 | 127.13111 | 31952 ft | 383 kts | 233° |
| 2026-04-30 13:16 | 29.32304 | 127.08355 | 31953 ft | 383 kts | 233° |
| 2026-04-30 13:16 | 29.28996 | 127.03601 | 31958 ft | 383 kts | 233° |
| 2026-04-30 13:17 | 29.24009 | 126.96444 | 31969 ft | 383 kts | 233° |
| 2026-04-30 13:18 | 29.19047 | 126.89338 | 31973 ft | 383 kts | 233° |
| 2026-04-30 13:18 | 29.14049 | 126.82194 | 31974 ft | 383 kts | 233° |
| 2026-04-30 13:19 | 29.10729 | 126.77455 | 31974 ft | 383 kts | 233° |
| 2026-04-30 13:19 | 29.07389 | 126.72691 | 31974 ft | 383 kts | 233° |
| 2026-04-30 13:20 | 29.04058 | 126.67947 | 31975 ft | 384 kts | 233° |
| 2026-04-30 13:20 | 29.00731 | 126.63216 | 31975 ft | 384 kts | 233° |
| 2026-04-30 13:21 | 28.97378 | 126.58454 | 31978 ft | 384 kts | 233° |
| 2026-04-30 13:22 | 28.92219 | 126.51433 | 31994 ft | 385 kts | 232° |
| 2026-04-30 13:22 | 28.87027 | 126.44447 | 32012 ft | 385 kts | 232° |
| 2026-04-30 13:23 | 28.81835 | 126.37458 | 32021 ft | 385 kts | 232° |
| 2026-04-30 13:24 | 28.74897 | 126.28137 | 32024 ft | 386 kts | 232° |
| 2026-04-30 13:25 | 28.67942 | 126.18816 | 32024 ft | 388 kts | 232° |
| 2026-04-30 13:26 | 28.59323 | 126.06992 | 32026 ft | 389 kts | 233° |
| 2026-04-30 13:28 | 28.50808 | 125.94956 | 32028 ft | 391 kts | 233° |
| 2026-04-30 13:28 | 28.45697 | 125.87766 | 32038 ft | 391 kts | 233° |
| 2026-04-30 13:29 | 28.38863 | 125.78172 | 32036 ft | 391 kts | 233° |
| 2026-04-30 13:31 | 28.30322 | 125.66214 | 32023 ft | 392 kts | 233° |
| 2026-04-30 13:32 | 28.21737 | 125.54228 | 32027 ft | 392 kts | 233° |
| 2026-04-30 13:33 | 28.14861 | 125.44654 | 32029 ft | 391 kts | 233° |
| 2026-04-30 13:34 | 28.09711 | 125.37495 | 32029 ft | 390 kts | 233° |
| 2026-04-30 13:35 | 28.02878 | 125.28019 | 32031 ft | 390 kts | 233° |
| 2026-04-30 13:36 | 27.96028 | 125.18535 | 32031 ft | 389 kts | 233° |
| 2026-04-30 13:36 | 27.90875 | 125.11414 | 32029 ft | 393 kts | 233° |
| 2026-04-30 13:37 | 27.85634 | 125.04188 | 32033 ft | 396 kts | 233° |
| 2026-04-30 13:38 | 27.80382 | 124.96959 | 32034 ft | 396 kts | 233° |
| 2026-04-30 13:39 | 27.73401 | 124.87370 | 32035 ft | 396 kts | 233° |
| 2026-04-30 13:40 | 27.68168 | 124.80194 | 32037 ft | 396 kts | 233° |
| 2026-04-30 13:40 | 27.64662 | 124.75395 | 32038 ft | 395 kts | 233° |
| 2026-04-30 13:41 | 27.61187 | 124.70641 | 32038 ft | 395 kts | 233° |
| 2026-04-30 13:41 | 27.57687 | 124.65849 | 32039 ft | 394 kts | 233° |
| 2026-04-30 13:42 | 27.54223 | 124.61113 | 32039 ft | 394 kts | 233° |
| 2026-04-30 13:42 | 27.48984 | 124.53961 | 32040 ft | 394 kts | 233° |
| 2026-04-30 13:43 | 27.45510 | 124.49223 | 32040 ft | 394 kts | 233° |
| 2026-04-30 13:43 | 27.42003 | 124.44449 | 32041 ft | 394 kts | 233° |
| 2026-04-30 13:44 | 27.38530 | 124.39725 | 32041 ft | 394 kts | 233° |
| 2026-04-30 13:44 | 27.35046 | 124.34991 | 32042 ft | 394 kts | 233° |
| 2026-04-30 13:45 | 27.29806 | 124.27881 | 32044 ft | 394 kts | 233° |
| 2026-04-30 13:46 | 27.26307 | 124.23138 | 32044 ft | 395 kts | 233° |
| 2026-04-30 13:46 | 27.22792 | 124.18379 | 32043 ft | 395 kts | 233° |
| 2026-04-30 13:47 | 27.19292 | 124.13647 | 32043 ft | 396 kts | 233° |
| 2026-04-30 13:47 | 27.15763 | 124.08882 | 32045 ft | 396 kts | 233° |
| 2026-04-30 13:48 | 27.12236 | 124.04125 | 32049 ft | 397 kts | 233° |
| 2026-04-30 13:48 | 27.08710 | 123.99377 | 32051 ft | 397 kts | 233° |
| 2026-04-30 13:49 | 27.05135 | 123.94616 | 32052 ft | 398 kts | 232° |
| 2026-04-30 13:49 | 27.01565 | 123.89877 | 32053 ft | 398 kts | 233° |
| 2026-04-30 13:50 | 26.97986 | 123.85130 | 32053 ft | 399 kts | 233° |
| 2026-04-30 13:50 | 26.92614 | 123.78009 | 32051 ft | 399 kts | 233° |
| 2026-04-30 13:51 | 26.89026 | 123.73259 | 32052 ft | 400 kts | 233° |
| 2026-04-30 13:51 | 26.85426 | 123.68497 | 32051 ft | 401 kts | 233° |
| 2026-04-30 13:52 | 26.81836 | 123.63757 | 32052 ft | 402 kts | 233° |
| 2026-04-30 13:52 | 26.78201 | 123.58961 | 32053 ft | 402 kts | 233° |
| 2026-04-30 13:53 | 26.74590 | 123.54202 | 32053 ft | 403 kts | 233° |
| 2026-04-30 13:53 | 26.70965 | 123.49431 | 32056 ft | 403 kts | 233° |
| 2026-04-30 13:54 | 26.67336 | 123.44661 | 32059 ft | 404 kts | 233° |
| 2026-04-30 13:54 | 26.63686 | 123.39866 | 32060 ft | 404 kts | 233° |
| 2026-04-30 13:55 | 26.60051 | 123.35094 | 32060 ft | 405 kts | 233° |
| 2026-04-30 13:55 | 26.56385 | 123.30291 | 32061 ft | 405 kts | 232° |
| 2026-04-30 13:56 | 26.52748 | 123.25528 | 32060 ft | 405 kts | 232° |
| 2026-04-30 13:56 | 26.49092 | 123.20747 | 32060 ft | 406 kts | 232° |
| 2026-04-30 13:57 | 26.45410 | 123.15938 | 32060 ft | 406 kts | 232° |
| 2026-04-30 13:57 | 26.41748 | 123.11161 | 32061 ft | 406 kts | 232° |
| 2026-04-30 13:58 | 26.36236 | 123.03982 | 32060 ft | 407 kts | 232° |
| 2026-04-30 13:59 | 26.32567 | 122.99206 | 32059 ft | 407 kts | 233° |
| 2026-04-30 13:59 | 26.28885 | 122.94420 | 32059 ft | 408 kts | 233° |
| 2026-04-30 14:00 | 26.25171 | 122.89597 | 32059 ft | 408 kts | 233° |
| 2026-04-30 14:00 | 26.19633 | 122.82416 | 32070 ft | 408 kts | 233° |
| 2026-04-30 14:01 | 26.15935 | 122.77629 | 32078 ft | 409 kts | 233° |
| 2026-04-30 14:01 | 26.12246 | 122.72859 | 32080 ft | 409 kts | 233° |
| 2026-04-30 14:02 | 26.08512 | 122.68037 | 32080 ft | 409 kts | 233° |
| 2026-04-30 14:02 | 26.04812 | 122.63261 | 32080 ft | 410 kts | 233° |
| 2026-04-30 14:03 | 26.01080 | 122.58449 | 32081 ft | 410 kts | 233° |
| 2026-04-30 14:03 | 25.97371 | 122.53675 | 32086 ft | 411 kts | 233° |
| 2026-04-30 14:04 | 25.93635 | 122.48867 | 32088 ft | 412 kts | 233° |
| 2026-04-30 14:04 | 25.89869 | 122.44019 | 32088 ft | 414 kts | 233° |
| 2026-04-30 14:05 | 25.86095 | 122.39170 | 32092 ft | 415 kts | 233° |
| 2026-04-30 14:05 | 25.82321 | 122.34329 | 32095 ft | 415 kts | 232° |
| 2026-04-30 14:06 | 25.76658 | 122.27076 | 32093 ft | 416 kts | 233° |
| 2026-04-30 14:07 | 25.70961 | 122.19792 | 32091 ft | 416 kts | 233° |
| 2026-04-30 14:08 | 25.65480 | 122.12379 | 32091 ft | 414 kts | 238° |
| 2026-04-30 14:08 | 25.61238 | 122.04159 | 32091 ft | 411 kts | 248° |
| 2026-04-30 14:09 | 25.60126 | 122.01218 | 31935 ft | 411 kts | 250° |
| 2026-04-30 14:09 | 25.59195 | 121.98255 | 31479 ft | 409 kts | 253° |
| 2026-04-30 14:09 | 25.57621 | 121.92222 | 30100 ft | 411 kts | 255° |
| 2026-04-30 14:10 | 25.56844 | 121.89198 | 29229 ft | 414 kts | 255° |
| 2026-04-30 14:10 | 25.56063 | 121.86149 | 28318 ft | 415 kts | 255° |
| 2026-04-30 14:10 | 25.55282 | 121.83099 | 27410 ft | 416 kts | 255° |
| 2026-04-30 14:10 | 25.54502 | 121.80051 | 26703 ft | 410 kts | 255° |
| 2026-04-30 14:11 | 25.53733 | 121.77053 | 26102 ft | 403 kts | 255° |
| 2026-04-30 14:11 | 25.52971 | 121.74088 | 25514 ft | 395 kts | 255° |
| 2026-04-30 14:11 | 25.52227 | 121.71203 | 24957 ft | 392 kts | 255° |
| 2026-04-30 14:11 | 25.51477 | 121.68289 | 24398 ft | 391 kts | 255° |
| 2026-04-30 14:12 | 25.50738 | 121.65414 | 23861 ft | 389 kts | 255° |
| 2026-04-30 14:12 | 25.50004 | 121.62560 | 23333 ft | 386 kts | 255° |
| 2026-04-30 14:12 | 25.49145 | 121.59769 | 22783 ft | 383 kts | 249° |
| 2026-04-30 14:12 | 25.48381 | 121.57998 | 22413 ft | 382 kts | 244° |
| 2026-04-30 14:13 | 25.46452 | 121.54731 | 21670 ft | 382 kts | 236° |
| 2026-04-30 14:13 | 25.44762 | 121.52488 | 21115 ft | 380 kts | 233° |
| 2026-04-30 14:13 | 25.43049 | 121.50278 | 20555 ft | 378 kts | 233° |
| 2026-04-30 14:13 | 25.41342 | 121.48089 | 19994 ft | 377 kts | 233° |
| 2026-04-30 14:14 | 25.39631 | 121.45899 | 19435 ft | 374 kts | 233° |
| 2026-04-30 14:14 | 25.37952 | 121.43750 | 18892 ft | 373 kts | 233° |
| 2026-04-30 14:14 | 25.36262 | 121.41587 | 18342 ft | 371 kts | 233° |
| 2026-04-30 14:14 | 25.34580 | 121.39437 | 17796 ft | 368 kts | 233° |
| 2026-04-30 14:15 | 25.32911 | 121.37306 | 17250 ft | 366 kts | 233° |
| 2026-04-30 14:15 | 25.31244 | 121.35178 | 16700 ft | 365 kts | 233° |
| 2026-04-30 14:15 | 25.29605 | 121.33089 | 16155 ft | 363 kts | 232° |
| 2026-04-30 14:15 | 25.27954 | 121.30984 | 15600 ft | 362 kts | 232° |
| 2026-04-30 14:16 | 25.26307 | 121.28883 | 15044 ft | 360 kts | 232° |
| 2026-04-30 14:16 | 25.24674 | 121.26804 | 14488 ft | 359 kts | 232° |
| 2026-04-30 14:16 | 25.23048 | 121.24735 | 13935 ft | 357 kts | 232° |
| 2026-04-30 14:16 | 25.21429 | 121.22678 | 13382 ft | 354 kts | 232° |
| 2026-04-30 14:17 | 25.19820 | 121.20632 | 12836 ft | 351 kts | 232° |
| 2026-04-30 14:17 | 25.18218 | 121.18595 | 12291 ft | 349 kts | 231° |
| 2026-04-30 14:17 | 25.16636 | 121.16589 | 11746 ft | 346 kts | 231° |
| 2026-04-30 14:17 | 25.15064 | 121.14603 | 11207 ft | 344 kts | 231° |
| 2026-04-30 14:18 | 25.13505 | 121.12629 | 10894 ft | 334 kts | 231° |
| 2026-04-30 14:18 | 25.12010 | 121.10738 | 10694 ft | 321 kts | 231° |
| 2026-04-30 14:18 | 25.09193 | 121.07161 | 10317 ft | 299 kts | 231° |
| 2026-04-30 14:19 | 25.06562 | 121.03815 | 10014 ft | 278 kts | 231° |
| 2026-04-30 14:19 | 25.05311 | 121.02225 | 9733 ft | 273 kts | 231° |
| 2026-04-30 14:19 | 25.04070 | 121.00648 | 9353 ft | 274 kts | 231° |
| 2026-04-30 14:20 | 25.02821 | 120.99060 | 8984 ft | 273 kts | 231° |
| 2026-04-30 14:20 | 25.01571 | 120.97475 | 8622 ft | 272 kts | 231° |
| 2026-04-30 14:20 | 24.99074 | 120.94325 | 7919 ft | 271 kts | 231° |
| 2026-04-30 14:21 | 24.97845 | 120.92770 | 7591 ft | 270 kts | 231° |
| 2026-04-30 14:21 | 24.96617 | 120.91213 | 7253 ft | 270 kts | 231° |
| 2026-04-30 14:21 | 24.94143 | 120.88095 | 6563 ft | 271 kts | 227° |
| 2026-04-30 14:22 | 24.92542 | 120.86982 | 6179 ft | 277 kts | 197° |
| 2026-04-30 14:22 | 24.88901 | 120.88020 | 5483 ft | 286 kts | 135° |
| 2026-04-30 14:22 | 24.87895 | 120.89876 | 5135 ft | 287 kts | 104° |
| 2026-04-30 14:23 | 24.88817 | 120.93896 | 4449 ft | 278 kts | 44° |
| 2026-04-30 14:23 | 24.91111 | 120.97173 | 4124 ft | 266 kts | 76° |
| 2026-04-30 14:24 | 24.91397 | 121.01041 | 4045 ft | 240 kts | 66° |
| 2026-04-30 14:24 | 24.92217 | 121.02595 | 3784 ft | 237 kts | 50° |
| 2026-04-30 14:25 | 24.94454 | 121.05325 | 3077 ft | 238 kts | 46° |
| 2026-04-30 14:25 | 24.96560 | 121.07920 | 2639 ft | 211 kts | 48° |
| 2026-04-30 14:26 | 24.98312 | 121.10163 | 2751 ft | 177 kts | 47° |
| 2026-04-30 14:26 | 24.99084 | 121.11153 | 2554 ft | 164 kts | 47° |
| 2026-04-30 14:26 | 25.00487 | 121.12945 | 2108 ft | 144 kts | 47° |
| 2026-04-30 14:27 | 25.01135 | 121.13770 | 1923 ft | 138 kts | 47° |
| 2026-04-30 14:27 | 25.01733 | 121.14532 | 1743 ft | 129 kts | 47° |
| 2026-04-30 14:27 | 25.02321 | 121.15282 | 1579 ft | 127 kts | 47° |
| 2026-04-30 14:28 | 25.03475 | 121.16748 | 1257 ft | 126 kts | 47° |
| 2026-04-30 14:28 | 25.04050 | 121.17477 | 1088 ft | 126 kts | 49° |
| 2026-04-30 14:28 | 25.04627 | 121.18212 | 917 ft | 126 kts | 49° |
| 2026-04-30 14:28 | 25.05195 | 121.18936 | 748 ft | 125 kts | 50° |
| 2026-04-30 14:29 | 25.06340 | 121.20390 | 416 ft | 125 kts | 50° |
| 2026-04-30 14:29 | 25.07294 | 121.21602 | 142 ft | 124 kts | 50° |
| 2026-04-30 14:30 | 25.08327 | 121.22921 | 115 ft | 26 kts | 51° |
| 2026-04-30 14:31 | 25.08435 | 121.23172 | 116 ft | 13 kts | 80° |
| 2026-04-30 14:31 | 25.08460 | 121.23311 | 116 ft | 9 kts | 78° |
| 2026-04-30 14:31 | 25.08472 | 121.23377 | 116 ft | 5 kts | 78° |
| 2026-04-30 14:32 | 25.08479 | 121.23418 | 116 ft | 1 kts | 81° |
| 2026-04-30 14:32 | 25.08484 | 121.23434 | 116 ft | 2 kts | 67° |
| 2026-04-30 14:32 | 25.08511 | 121.23477 | 116 ft | 12 kts | 50° |
| 2026-04-30 14:33 | 25.08582 | 121.23566 | 116 ft | 16 kts | 49° |
| 2026-04-30 14:33 | 25.08715 | 121.23736 | 115 ft | 14 kts | 49° |
| 2026-04-30 14:33 | 25.08780 | 121.23819 | 116 ft | 10 kts | 49° |
| 2026-04-30 14:34 | 25.08789 | 121.23878 | 116 ft | 9 kts | 141° |
| 2026-04-30 14:34 | 25.08741 | 121.23917 | 116 ft | 7 kts | 139° |
| 2026-04-30 14:34 | 25.08715 | 121.23943 | 115 ft | 0 kts | 138° |